sensor_id;sensor_type;location;lat;lon;timestamp;pressure;altitude;pressure_sealevel;temperature;humidity
56270;BME280;42176;43.240;27.880;2023-04-08T00:01:53;100569.31;;;5.14;100.00
56270;BME280;42176;43.240;27.880;2023-04-08T00:04:18;100572.97;;;5.35;100.00
56270;BME280;42176;43.240;27.880;2023-04-08T00:06:44;100571.41;;;5.68;93.78
56270;BME280;42176;43.240;27.880;2023-04-08T00:09:10;100566.44;;;4.79;97.31
56270;BME280;42176;43.240;27.880;2023-04-08T00:11:35;100555.97;;;4.88;98.07
56270;BME280;42176;43.240;27.880;2023-04-08T00:14:02;100551.78;;;5.09;98.16
56270;BME280;42176;43.240;27.880;2023-04-08T00:16:28;100555.44;;;5.29;98.10
56270;BME280;42176;43.240;27.880;2023-04-08T00:18:53;100556.44;;;5.56;96.19
56270;BME280;42176;43.240;27.880;2023-04-08T00:21:19;100545.78;;;5.34;88.24
56270;BME280;42176;43.240;27.880;2023-04-08T00:23:45;100568.44;;;5.11;92.89
56270;BME280;42176;43.240;27.880;2023-04-08T00:26:11;100565.03;;;5.24;93.38
56270;BME280;42176;43.240;27.880;2023-04-08T00:28:37;100560.75;;;5.42;93.77
56270;BME280;42176;43.240;27.880;2023-04-08T00:31:03;100558.44;;;6.01;88.36
56270;BME280;42176;43.240;27.880;2023-04-08T00:33:28;100568.50;;;5.20;88.56
56270;BME280;42176;43.240;27.880;2023-04-08T00:35:54;100570.19;;;5.15;91.25
56270;BME280;42176;43.240;27.880;2023-04-08T00:38:19;100571.19;;;5.31;92.18
56270;BME280;42176;43.240;27.880;2023-04-08T00:40:45;100566.91;;;5.47;95.59
56270;BME280;42176;43.240;27.880;2023-04-08T00:43:11;100562.63;;;5.64;94.63
56270;BME280;42176;43.240;27.880;2023-04-08T00:45:36;100558.28;;;5.79;92.23
56270;BME280;42176;43.240;27.880;2023-04-08T00:48:03;100568.03;;;5.97;90.13
56270;BME280;42176;43.240;27.880;2023-04-08T00:50:28;100566.38;;;6.15;87.81
56270;BME280;42176;43.240;27.880;2023-04-08T00:52:54;100566.41;;;6.30;82.52
56270;BME280;42176;43.240;27.880;2023-04-08T00:55:19;100545.53;;;4.96;93.98
56270;BME280;42176;43.240;27.880;2023-04-08T00:57:45;100568.44;;;5.11;99.01
56270;BME280;42176;43.240;27.880;2023-04-08T01:00:12;100572.88;;;5.20;100.00
56270;BME280;42176;43.240;27.880;2023-04-08T01:07:50;100565.31;;;5.74;93.76
56270;BME280;42176;43.240;27.880;2023-04-08T01:10:21;100565.38;;;5.89;92.05
56270;BME280;42176;43.240;27.880;2023-04-08T01:12:55;100528.53;;;5.95;88.10
56270;BME280;42176;43.240;27.880;2023-04-08T01:15:23;100558.50;;;6.32;85.40
56270;BME280;42176;43.240;27.880;2023-04-08T01:17:53;100565.56;;;6.48;84.32
56270;BME280;42176;43.240;27.880;2023-04-08T01:20:20;100555.69;;;5.82;83.18
56270;BME280;42176;43.240;27.880;2023-04-08T01:25:33;100560.66;;;5.26;93.93
56270;BME280;42176;43.240;27.880;2023-04-08T01:28:01;100556.44;;;5.56;93.60
56270;BME280;42176;43.240;27.880;2023-04-08T01:30:28;100547.59;;;5.42;92.05
56270;BME280;42176;43.240;27.880;2023-04-08T01:32:55;100559.56;;;4.99;96.25
56270;BME280;42176;43.240;27.880;2023-04-08T01:35:22;100557.97;;;5.20;96.07
56270;BME280;42176;43.240;27.880;2023-04-08T01:37:49;100559.97;;;5.60;93.62
56270;BME280;42176;43.240;27.880;2023-04-08T01:40:16;100558.91;;;5.30;92.25
56270;BME280;42176;43.240;27.880;2023-04-08T01:42:43;100561.28;;;4.91;97.79
56270;BME280;42176;43.240;27.880;2023-04-08T01:45:10;100554.44;;;5.18;97.93
56270;BME280;42176;43.240;27.880;2023-04-08T01:47:37;100555.50;;;5.42;96.81
56270;BME280;42176;43.240;27.880;2023-04-08T01:50:04;100552.97;;;5.63;91.60
56270;BME280;42176;43.240;27.880;2023-04-08T01:52:31;100552.69;;;5.17;95.04
56270;BME280;42176;43.240;27.880;2023-04-08T01:54:59;100557.13;;;5.24;94.37
56270;BME280;42176;43.240;27.880;2023-04-08T01:57:27;100555.59;;;5.60;96.36
56270;BME280;42176;43.240;27.880;2023-04-08T02:00:00;100559.69;;;5.15;100.00
56270;BME280;42176;43.240;27.880;2023-04-08T02:02:26;100542.22;;;5.18;100.00
56270;BME280;42176;43.240;27.880;2023-04-08T02:04:53;100554.63;;;5.43;100.00
56270;BME280;42176;43.240;27.880;2023-04-08T02:07:18;100552.13;;;5.72;100.00
56270;BME280;42176;43.240;27.880;2023-04-08T02:09:44;100552.88;;;5.45;100.00
56270;BME280;42176;43.240;27.880;2023-04-08T02:12:10;100554.53;;;5.27;100.00
56270;BME280;42176;43.240;27.880;2023-04-08T02:14:36;100543.16;;;5.28;100.00
56270;BME280;42176;43.240;27.880;2023-04-08T02:17:10;100561.66;;;5.50;100.00
56270;BME280;42176;43.240;27.880;2023-04-08T02:19:46;100563.50;;;5.67;96.55
56270;BME280;42176;43.240;27.880;2023-04-08T02:22:24;100568.84;;;5.85;94.81
56270;BME280;42176;43.240;27.880;2023-04-08T02:24:54;100575.97;;;6.02;93.76
56270;BME280;42176;43.240;27.880;2023-04-08T02:30:05;100581.31;;;6.27;92.68
56270;BME280;42176;43.240;27.880;2023-04-08T02:32:32;100582.19;;;6.33;91.91
56270;BME280;42176;43.240;27.880;2023-04-08T02:35:00;100589.25;;;6.45;93.20
56270;BME280;42176;43.240;27.880;2023-04-08T02:37:27;100581.38;;;6.61;88.35
56270;BME280;42176;43.240;27.880;2023-04-08T02:39:53;100582.50;;;5.17;93.19
56270;BME280;42176;43.240;27.880;2023-04-08T02:42:19;100590.19;;;4.94;98.43
56270;BME280;42176;43.240;27.880;2023-04-08T02:44:44;100588.53;;;5.06;98.91
56270;BME280;42176;43.240;27.880;2023-04-08T02:47:10;100587.75;;;5.19;99.96
56270;BME280;42176;43.240;27.880;2023-04-08T02:49:35;100581.72;;;5.32;95.76
56270;BME280;42176;43.240;27.880;2023-04-08T02:52:01;100585.19;;;4.28;100.00
56270;BME280;42176;43.240;27.880;2023-04-08T02:54:26;100587.16;;;4.48;100.00
56270;BME280;42176;43.240;27.880;2023-04-08T02:56:52;100594.28;;;4.61;100.00
56270;BME280;42176;43.240;27.880;2023-04-08T02:59:17;100590.03;;;4.74;100.00
56270;BME280;42176;43.240;27.880;2023-04-08T03:01:43;100582.38;;;5.03;99.52
56270;BME280;42176;43.240;27.880;2023-04-08T03:04:08;100602.06;;;3.78;100.00
56270;BME280;42176;43.240;27.880;2023-04-08T03:06:34;100603.75;;;3.74;100.00
56270;BME280;42176;43.240;27.880;2023-04-08T03:08:59;100597.00;;;3.92;100.00
56270;BME280;42176;43.240;27.880;2023-04-08T03:11:25;100609.44;;;4.08;100.00
56270;BME280;42176;43.240;27.880;2023-04-08T03:13:50;100607.13;;;4.33;100.00
56270;BME280;42176;43.240;27.880;2023-04-08T03:16:16;100604.16;;;3.39;100.00
56270;BME280;42176;43.240;27.880;2023-04-08T03:18:41;100612.31;;;3.61;100.00
56270;BME280;42176;43.240;27.880;2023-04-08T03:21:07;100605.53;;;3.75;100.00
56270;BME280;42176;43.240;27.880;2023-04-08T03:23:32;100602.38;;;4.01;100.00
56270;BME280;42176;43.240;27.880;2023-04-08T03:25:57;100611.50;;;3.05;100.00
56270;BME280;42176;43.240;27.880;2023-04-08T03:28:23;100602.41;;;2.84;100.00
56270;BME280;42176;43.240;27.880;2023-04-08T03:30:48;100602.78;;;3.06;100.00
56270;BME280;42176;43.240;27.880;2023-04-08T03:33:14;100614.41;;;3.24;100.00
56270;BME280;42176;43.240;27.880;2023-04-08T03:35:39;100604.81;;;3.86;100.00
56270;BME280;42176;43.240;27.880;2023-04-08T03:38:05;100616.06;;;3.18;100.00
56270;BME280;42176;43.240;27.880;2023-04-08T03:40:30;100618.97;;;3.37;100.00
56270;BME280;42176;43.240;27.880;2023-04-08T03:42:56;100622.25;;;3.85;100.00
56270;BME280;42176;43.240;27.880;2023-04-08T03:45:21;100622.44;;;3.36;100.00
56270;BME280;42176;43.240;27.880;2023-04-08T03:47:47;100631.22;;;3.40;100.00
56270;BME280;42176;43.240;27.880;2023-04-08T03:50:12;100626.25;;;3.57;100.00
56270;BME280;42176;43.240;27.880;2023-04-08T03:52:38;100624.94;;;3.88;100.00
56270;BME280;42176;43.240;27.880;2023-04-08T03:55:03;100626.78;;;3.32;100.00
56270;BME280;42176;43.240;27.880;2023-04-08T03:57:29;100634.25;;;3.09;100.00
56270;BME280;42176;43.240;27.880;2023-04-08T03:59:54;100634.66;;;3.34;100.00
56270;BME280;42176;43.240;27.880;2023-04-08T04:02:20;100637.69;;;3.62;100.00
56270;BME280;42176;43.240;27.880;2023-04-08T04:04:45;100634.09;;;4.20;100.00
56270;BME280;42176;43.240;27.880;2023-04-08T04:07:11;100640.25;;;3.59;100.00
56270;BME280;42176;43.240;27.880;2023-04-08T04:09:36;100647.69;;;3.88;100.00
56270;BME280;42176;43.240;27.880;2023-04-08T04:12:02;100646.31;;;4.21;100.00
56270;BME280;42176;43.240;27.880;2023-04-08T04:14:27;100644.09;;;4.55;100.00
56270;BME280;42176;43.240;27.880;2023-04-08T04:16:53;100653.22;;;4.90;100.00
56270;BME280;42176;43.240;27.880;2023-04-08T04:19:18;100600.78;;;5.02;100.00
56270;BME280;42176;43.240;27.880;2023-04-08T04:21:43;100647.06;;;6.11;100.00
56270;BME280;42176;43.240;27.880;2023-04-08T04:24:09;100646.41;;;6.86;100.00
56270;BME280;42176;43.240;27.880;2023-04-08T04:26:34;100637.63;;;7.56;95.71
56270;BME280;42176;43.240;27.880;2023-04-08T04:29:00;100630.41;;;8.23;89.72
56270;BME280;42176;43.240;27.880;2023-04-08T04:31:25;100633.63;;;8.84;85.20
56270;BME280;42176;43.240;27.880;2023-04-08T04:33:51;100637.56;;;9.41;81.58
56270;BME280;42176;43.240;27.880;2023-04-08T04:36:17;100634.81;;;9.50;80.93
56270;BME280;42176;43.240;27.880;2023-04-08T04:38:43;100643.72;;;9.43;81.61
56270;BME280;42176;43.240;27.880;2023-04-08T04:41:08;100634.22;;;9.22;86.86
56270;BME280;42176;43.240;27.880;2023-04-08T04:43:34;100635.03;;;9.27;87.39
56270;BME280;42176;43.240;27.880;2023-04-08T04:45:59;100643.84;;;9.27;88.64
56270;BME280;42176;43.240;27.880;2023-04-08T04:48:26;100636.63;;;9.48;88.91
56270;BME280;42176;43.240;27.880;2023-04-08T04:50:55;100629.50;;;9.53;88.45
56270;BME280;42176;43.240;27.880;2023-04-08T04:53:22;100631.72;;;10.67;85.46
56270;BME280;42176;43.240;27.880;2023-04-08T04:55:49;100634.88;;;10.91;82.10
56270;BME280;42176;43.240;27.880;2023-04-08T04:58:14;100640.75;;;11.11;82.24
56270;BME280;42176;43.240;27.880;2023-04-08T05:00:40;100637.13;;;11.69;78.70
56270;BME280;42176;43.240;27.880;2023-04-08T05:03:05;100643.81;;;10.87;80.98
56270;BME280;42176;43.240;27.880;2023-04-08T05:05:31;100651.97;;;11.29;80.68
56270;BME280;42176;43.240;27.880;2023-04-08T05:07:56;100641.66;;;11.62;76.73
56270;BME280;42176;43.240;27.880;2023-04-08T05:10:22;100638.81;;;12.20;73.79
56270;BME280;42176;43.240;27.880;2023-04-08T05:12:47;100652.03;;;12.23;74.45
56270;BME280;42176;43.240;27.880;2023-04-08T05:15:13;100652.72;;;11.86;75.40
56270;BME280;42176;43.240;27.880;2023-04-08T05:17:38;100653.72;;;11.30;79.49
56270;BME280;42176;43.240;27.880;2023-04-08T05:20:05;100641.78;;;12.06;75.79
56270;BME280;42176;43.240;27.880;2023-04-08T05:22:30;100648.09;;;12.43;73.19
56270;BME280;42176;43.240;27.880;2023-04-08T05:24:56;100649.91;;;13.89;66.45
56270;BME280;42176;43.240;27.880;2023-04-08T05:27:21;100652.47;;;14.85;61.16
56270;BME280;42176;43.240;27.880;2023-04-08T05:29:47;100649.16;;;15.84;54.36
56270;BME280;42176;43.240;27.880;2023-04-08T05:32:12;100643.72;;;16.82;50.78
56270;BME280;42176;43.240;27.880;2023-04-08T05:34:38;100646.06;;;17.57;48.06
56270;BME280;42176;43.240;27.880;2023-04-08T05:37:03;100647.25;;;17.91;46.43
56270;BME280;42176;43.240;27.880;2023-04-08T05:39:29;100647.88;;;18.37;45.63
56270;BME280;42176;43.240;27.880;2023-04-08T05:41:54;100647.91;;;17.96;45.50
56270;BME280;42176;43.240;27.880;2023-04-08T05:44:20;100654.34;;;17.92;45.85
56270;BME280;42176;43.240;27.880;2023-04-08T05:46:45;100649.00;;;17.71;45.58
56270;BME280;42176;43.240;27.880;2023-04-08T05:49:11;100659.56;;;17.11;47.38
56270;BME280;42176;43.240;27.880;2023-04-08T05:51:37;100648.72;;;17.77;45.86
56270;BME280;42176;43.240;27.880;2023-04-08T05:54:03;100654.56;;;16.79;47.95
56270;BME280;42176;43.240;27.880;2023-04-08T05:56:29;100651.56;;;17.74;46.19
56270;BME280;42176;43.240;27.880;2023-04-08T05:58:56;100645.50;;;17.05;46.64
56270;BME280;42176;43.240;27.880;2023-04-08T06:01:22;100646.69;;;18.24;45.16
56270;BME280;42176;43.240;27.880;2023-04-08T06:03:47;100655.81;;;17.37;44.87
56270;BME280;42176;43.240;27.880;2023-04-08T06:06:13;100656.66;;;15.73;49.66
56270;BME280;42176;43.240;27.880;2023-04-08T06:08:39;100661.91;;;14.65;52.30
56270;BME280;42176;43.240;27.880;2023-04-08T06:11:04;100663.03;;;14.28;53.48
56270;BME280;42176;43.240;27.880;2023-04-08T06:13:30;100661.59;;;14.46;53.31
56270;BME280;42176;43.240;27.880;2023-04-08T06:15:56;100656.03;;;15.39;50.13
56270;BME280;42176;43.240;27.880;2023-04-08T06:18:21;100662.16;;;15.70;48.95
56270;BME280;42176;43.240;27.880;2023-04-08T06:20:47;100651.44;;;16.20;48.36
56270;BME280;42176;43.240;27.880;2023-04-08T06:23:12;100646.84;;;16.71;47.22
56270;BME280;42176;43.240;27.880;2023-04-08T06:25:38;100653.31;;;16.66;46.75
56270;BME280;42176;43.240;27.880;2023-04-08T06:28:03;100659.88;;;17.68;45.28
56270;BME280;42176;43.240;27.880;2023-04-08T06:30:29;100660.66;;;17.91;44.56
56270;BME280;42176;43.240;27.880;2023-04-08T06:32:55;100662.66;;;17.44;44.93
56270;BME280;42176;43.240;27.880;2023-04-08T06:35:20;100649.72;;;18.16;43.86
56270;BME280;42176;43.240;27.880;2023-04-08T06:37:46;100659.22;;;19.19;43.02
56270;BME280;42176;43.240;27.880;2023-04-08T06:40:12;100654.34;;;20.65;39.11
56270;BME280;42176;43.240;27.880;2023-04-08T06:42:37;100649.44;;;20.39;39.13
56270;BME280;42176;43.240;27.880;2023-04-08T06:45:05;100641.78;;;21.28;37.42
56270;BME280;42176;43.240;27.880;2023-04-08T06:47:30;100650.84;;;21.27;38.08
56270;BME280;42176;43.240;27.880;2023-04-08T06:49:56;100645.66;;;22.14;35.86
56270;BME280;42176;43.240;27.880;2023-04-08T06:52:21;100657.53;;;21.36;35.99
56270;BME280;42176;43.240;27.880;2023-04-08T06:54:47;100663.72;;;18.82;41.15
56270;BME280;42176;43.240;27.880;2023-04-08T06:57:12;100644.41;;;20.00;40.02
56270;BME280;42176;43.240;27.880;2023-04-08T06:59:37;100665.09;;;19.27;40.73
56270;BME280;42176;43.240;27.880;2023-04-08T07:02:03;100663.19;;;20.17;40.05
56270;BME280;42176;43.240;27.880;2023-04-08T07:04:28;100664.50;;;19.75;40.17
56270;BME280;42176;43.240;27.880;2023-04-08T07:06:54;100675.88;;;19.62;39.65
56270;BME280;42176;43.240;27.880;2023-04-08T07:09:19;100672.84;;;19.33;40.57
56270;BME280;42176;43.240;27.880;2023-04-08T07:11:45;100681.38;;;19.24;41.06
56270;BME280;42176;43.240;27.880;2023-04-08T07:14:11;100674.13;;;19.26;40.99
56270;BME280;42176;43.240;27.880;2023-04-08T07:16:36;100670.81;;;18.83;41.05
56270;BME280;42176;43.240;27.880;2023-04-08T07:19:02;100675.31;;;18.63;42.44
56270;BME280;42176;43.240;27.880;2023-04-08T07:21:27;100677.16;;;19.55;40.34
56270;BME280;42176;43.240;27.880;2023-04-08T07:23:52;100676.63;;;17.94;43.01
56270;BME280;42176;43.240;27.880;2023-04-08T07:26:18;100685.41;;;18.58;41.67
56270;BME280;42176;43.240;27.880;2023-04-08T07:28:44;100683.88;;;18.71;41.12
56270;BME280;42176;43.240;27.880;2023-04-08T07:31:14;100688.50;;;17.45;43.94
56270;BME280;42176;43.240;27.880;2023-04-08T07:33:40;100685.63;;;17.72;43.25
56270;BME280;42176;43.240;27.880;2023-04-08T07:36:08;100693.91;;;16.77;45.08
56270;BME280;42176;43.240;27.880;2023-04-08T07:38:34;100676.44;;;15.68;47.41
56270;BME280;42176;43.240;27.880;2023-04-08T07:41:00;100705.44;;;14.97;49.39
56270;BME280;42176;43.240;27.880;2023-04-08T07:43:26;100702.56;;;15.87;48.08
56270;BME280;42176;43.240;27.880;2023-04-08T07:45:51;100691.59;;;16.44;46.65
56270;BME280;42176;43.240;27.880;2023-04-08T07:48:17;100686.03;;;16.50;46.38
56270;BME280;42176;43.240;27.880;2023-04-08T07:50:42;100698.78;;;16.89;46.19
56270;BME280;42176;43.240;27.880;2023-04-08T07:53:09;100696.69;;;16.98;45.84
56270;BME280;42176;43.240;27.880;2023-04-08T07:55:35;100695.03;;;15.98;48.07
56270;BME280;42176;43.240;27.880;2023-04-08T07:58:00;100692.38;;;16.70;46.57
56270;BME280;42176;43.240;27.880;2023-04-08T08:00:26;100697.94;;;16.65;46.56
56270;BME280;42176;43.240;27.880;2023-04-08T08:02:52;100696.13;;;16.66;46.20
56270;BME280;42176;43.240;27.880;2023-04-08T08:05:17;100694.63;;;16.58;45.47
56270;BME280;42176;43.240;27.880;2023-04-08T08:07:43;100694.56;;;16.11;47.42
56270;BME280;42176;43.240;27.880;2023-04-08T08:10:08;100708.44;;;16.94;44.58
56270;BME280;42176;43.240;27.880;2023-04-08T08:12:35;100701.66;;;16.12;45.29
56270;BME280;42176;43.240;27.880;2023-04-08T08:15:01;100701.94;;;16.77;45.89
56270;BME280;42176;43.240;27.880;2023-04-08T08:17:26;100712.94;;;16.69;44.88
56270;BME280;42176;43.240;27.880;2023-04-08T08:19:54;100697.41;;;16.32;45.80
56270;BME280;42176;43.240;27.880;2023-04-08T08:22:19;100704.66;;;16.75;45.15
56270;BME280;42176;43.240;27.880;2023-04-08T08:24:45;100708.09;;;17.03;44.61
56270;BME280;42176;43.240;27.880;2023-04-08T08:27:11;100702.69;;;16.33;45.89
56270;BME280;42176;43.240;27.880;2023-04-08T08:29:37;100702.34;;;15.40;46.41
56270;BME280;42176;43.240;27.880;2023-04-08T08:32:03;100716.88;;;15.31;46.62
56270;BME280;42176;43.240;27.880;2023-04-08T08:34:29;100715.38;;;15.22;46.83
56270;BME280;42176;43.240;27.880;2023-04-08T08:36:54;100713.13;;;13.83;51.24
56270;BME280;42176;43.240;27.880;2023-04-08T08:39:20;100715.31;;;13.30;51.89
56270;BME280;42176;43.240;27.880;2023-04-08T08:41:45;100710.75;;;12.95;53.25
56270;BME280;42176;43.240;27.880;2023-04-08T08:44:11;100706.28;;;12.98;53.67
56270;BME280;42176;43.240;27.880;2023-04-08T08:46:43;100717.78;;;13.00;53.36
56270;BME280;42176;43.240;27.880;2023-04-08T08:49:09;100731.97;;;13.38;52.50
56270;BME280;42176;43.240;27.880;2023-04-08T08:51:35;100726.31;;;13.14;54.79
56270;BME280;42176;43.240;27.880;2023-04-08T08:54:03;100729.66;;;13.62;55.35
56270;BME280;42176;43.240;27.880;2023-04-08T08:56:29;100728.28;;;13.45;56.61
56270;BME280;42176;43.240;27.880;2023-04-08T08:58:54;100727.50;;;13.40;56.53
56270;BME280;42176;43.240;27.880;2023-04-08T09:01:33;100730.56;;;12.82;60.76
56270;BME280;42176;43.240;27.880;2023-04-08T09:04:16;100746.50;;;11.91;65.89
56270;BME280;42176;43.240;27.880;2023-04-08T09:06:44;100736.38;;;12.13;64.73
56270;BME280;42176;43.240;27.880;2023-04-08T09:09:11;100744.16;;;11.18;70.14
56270;BME280;42176;43.240;27.880;2023-04-08T09:11:38;100752.50;;;11.51;72.94
56270;BME280;42176;43.240;27.880;2023-04-08T09:14:04;100732.44;;;11.31;76.66
56270;BME280;42176;43.240;27.880;2023-04-08T09:16:31;100754.38;;;11.99;75.19
56270;BME280;42176;43.240;27.880;2023-04-08T09:19:07;100754.19;;;12.08;73.72
56270;BME280;42176;43.240;27.880;2023-04-08T09:21:34;100741.97;;;11.98;73.60
56270;BME280;42176;43.240;27.880;2023-04-08T09:24:00;100752.56;;;12.01;76.61
56270;BME280;42176;43.240;27.880;2023-04-08T09:26:26;100743.22;;;12.27;75.90
56270;BME280;42176;43.240;27.880;2023-04-08T09:29:01;100744.38;;;13.00;72.07
56270;BME280;42176;43.240;27.880;2023-04-08T09:31:29;100742.63;;;12.99;69.96
56270;BME280;42176;43.240;27.880;2023-04-08T09:33:59;100740.88;;;12.98;68.32
56270;BME280;42176;43.240;27.880;2023-04-08T09:36:27;100748.97;;;12.93;67.48
56270;BME280;42176;43.240;27.880;2023-04-08T09:38:53;100758.94;;;12.83;67.12
56270;BME280;42176;43.240;27.880;2023-04-08T09:41:20;100752.69;;;12.42;70.95
56270;BME280;42176;43.240;27.880;2023-04-08T09:43:50;100741.75;;;12.57;70.45
56270;BME280;42176;43.240;27.880;2023-04-08T09:46:50;100746.16;;;12.13;70.69
56270;BME280;42176;43.240;27.880;2023-04-08T09:49:24;100744.84;;;11.84;73.31
56270;BME280;42176;43.240;27.880;2023-04-08T09:52:07;100747.31;;;11.96;73.16
56270;BME280;42176;43.240;27.880;2023-04-08T09:57:16;100750.00;;;11.40;75.66
56270;BME280;42176;43.240;27.880;2023-04-08T09:59:51;100757.91;;;11.45;75.53
56270;BME280;42176;43.240;27.880;2023-04-08T10:02:28;100743.22;;;11.77;74.35
56270;BME280;42176;43.240;27.880;2023-04-08T10:04:58;100739.66;;;11.76;74.36
56270;BME280;42176;43.240;27.880;2023-04-08T10:07:28;100735.00;;;11.37;75.47
56270;BME280;42176;43.240;27.880;2023-04-08T10:09:53;100733.44;;;11.24;76.59
56270;BME280;42176;43.240;27.880;2023-04-08T10:12:19;100726.13;;;10.79;81.81
56270;BME280;42176;43.240;27.880;2023-04-08T10:17:54;100735.63;;;10.94;86.09
56270;BME280;42176;43.240;27.880;2023-04-08T10:20:47;100728.94;;;10.65;82.15
56270;BME280;42176;43.240;27.880;2023-04-08T10:23:17;100724.00;;;10.31;85.13
56270;BME280;42176;43.240;27.880;2023-04-08T10:25:43;100732.84;;;10.30;86.76
56270;BME280;42176;43.240;27.880;2023-04-08T10:33:15;100720.16;;;10.60;87.74
56270;BME280;42176;43.240;27.880;2023-04-08T10:36:08;100715.84;;;10.53;84.01
56270;BME280;42176;43.240;27.880;2023-04-08T10:38:34;100701.06;;;10.30;87.19
56270;BME280;42176;43.240;27.880;2023-04-08T10:40:59;100699.47;;;10.13;84.75
56270;BME280;42176;43.240;27.880;2023-04-08T10:43:31;100715.19;;;10.32;86.70
56270;BME280;42176;43.240;27.880;2023-04-08T10:45:57;100716.25;;;10.17;90.33
56270;BME280;42176;43.240;27.880;2023-04-08T10:48:23;100722.25;;;10.30;86.27
56270;BME280;42176;43.240;27.880;2023-04-08T10:50:53;100728.19;;;10.57;84.24
56270;BME280;42176;43.240;27.880;2023-04-08T10:53:29;100732.84;;;10.31;85.54
56270;BME280;42176;43.240;27.880;2023-04-08T10:56:08;100730.19;;;10.34;87.70
56270;BME280;42176;43.240;27.880;2023-04-08T10:58:47;100729.47;;;10.18;87.42
56270;BME280;42176;43.240;27.880;2023-04-08T11:01:13;100729.25;;;10.40;88.45
56270;BME280;42176;43.240;27.880;2023-04-08T11:03:38;100729.31;;;10.31;84.65
56270;BME280;42176;43.240;27.880;2023-04-08T11:06:04;100719.41;;;10.51;86.25
56270;BME280;42176;43.240;27.880;2023-04-08T11:08:31;100716.13;;;10.26;85.80
56270;BME280;42176;43.240;27.880;2023-04-08T11:10:57;100723.19;;;10.27;85.51
56270;BME280;42176;43.240;27.880;2023-04-08T11:13:23;100720.63;;;10.19;83.47
56270;BME280;42176;43.240;27.880;2023-04-08T11:15:49;100724.28;;;10.09;83.81
56270;BME280;42176;43.240;27.880;2023-04-08T11:18:15;100704.13;;;9.96;87.14
56270;BME280;42176;43.240;27.880;2023-04-08T11:20:43;100707.72;;;9.87;91.00
56270;BME280;42176;43.240;27.880;2023-04-08T11:23:14;100727.06;;;9.95;91.37
56270;BME280;42176;43.240;27.880;2023-04-08T11:25:41;100705.47;;;10.32;87.79
56270;BME280;42176;43.240;27.880;2023-04-08T11:28:08;100708.25;;;10.18;88.72
56270;BME280;42176;43.240;27.880;2023-04-08T11:30:33;100712.00;;;9.99;90.38
56270;BME280;42176;43.240;27.880;2023-04-08T11:32:59;100696.50;;;10.44;89.56
56270;BME280;42176;43.240;27.880;2023-04-08T11:35:29;100642.75;;;10.30;86.06
56270;BME280;42176;43.240;27.880;2023-04-08T11:37:55;100694.19;;;10.87;84.42
56270;BME280;42176;43.240;27.880;2023-04-08T11:40:22;100690.09;;;10.61;88.04
56270;BME280;42176;43.240;27.880;2023-04-08T11:42:49;100698.69;;;10.81;88.56
56270;BME280;42176;43.240;27.880;2023-04-08T11:45:16;100695.19;;;10.76;89.96
56270;BME280;42176;43.240;27.880;2023-04-08T11:47:43;100697.16;;;10.62;90.25
56270;BME280;42176;43.240;27.880;2023-04-08T11:50:09;100687.13;;;10.86;90.64
56270;BME280;42176;43.240;27.880;2023-04-08T11:52:45;100686.13;;;10.93;89.14
56270;BME280;42176;43.240;27.880;2023-04-08T11:57:48;100685.91;;;10.46;91.25
56270;BME280;42176;43.240;27.880;2023-04-08T12:00:14;100671.22;;;10.12;95.02
56270;BME280;42176;43.240;27.880;2023-04-08T12:02:39;100680.31;;;9.89;95.81
56270;BME280;42176;43.240;27.880;2023-04-08T12:05:05;100678.47;;;9.98;90.13
56270;BME280;42176;43.240;27.880;2023-04-08T12:07:31;100669.34;;;10.24;91.37
56270;BME280;42176;43.240;27.880;2023-04-08T12:09:56;100674.88;;;10.02;92.73
56270;BME280;42176;43.240;27.880;2023-04-08T12:12:22;100666.19;;;9.90;94.06
56270;BME280;42176;43.240;27.880;2023-04-08T12:14:48;100671.28;;;10.09;96.96
56270;BME280;42176;43.240;27.880;2023-04-08T12:17:14;100671.97;;;10.27;95.14
56270;BME280;42176;43.240;27.880;2023-04-08T12:19:39;100677.72;;;9.88;95.18
56270;BME280;42176;43.240;27.880;2023-04-08T12:22:05;100675.09;;;9.82;94.36
56270;BME280;42176;43.240;27.880;2023-04-08T12:24:31;100670.72;;;9.78;91.73
56270;BME280;42176;43.240;27.880;2023-04-08T12:26:56;100669.56;;;10.05;92.50
56270;BME280;42176;43.240;27.880;2023-04-08T12:29:22;100671.50;;;9.87;88.59
56270;BME280;42176;43.240;27.880;2023-04-08T12:31:47;100664.28;;;10.02;90.50
56270;BME280;42176;43.240;27.880;2023-04-08T12:34:12;100660.53;;;10.21;86.77
56270;BME280;42176;43.240;27.880;2023-04-08T12:36:38;100650.88;;;10.17;86.03
56270;BME280;42176;43.240;27.880;2023-04-08T12:39:03;100631.47;;;10.15;85.17
56270;BME280;42176;43.240;27.880;2023-04-08T12:41:29;100644.56;;;10.28;86.82
56270;BME280;42176;43.240;27.880;2023-04-08T12:43:54;100637.44;;;10.33;85.25
56270;BME280;42176;43.240;27.880;2023-04-08T12:46:20;100645.91;;;10.63;81.90
56270;BME280;42176;43.240;27.880;2023-04-08T12:48:45;100640.94;;;10.35;83.50
56270;BME280;42176;43.240;27.880;2023-04-08T12:51:13;100644.44;;;10.35;85.44
56270;BME280;42176;43.240;27.880;2023-04-08T12:53:38;100638.31;;;10.32;87.21
56270;BME280;42176;43.240;27.880;2023-04-08T12:56:04;100597.25;;;9.97;85.81
56270;BME280;42176;43.240;27.880;2023-04-08T12:58:30;100631.53;;;10.11;86.62
56270;BME280;42176;43.240;27.880;2023-04-08T13:00:55;100635.84;;;10.19;85.68
56270;BME280;42176;43.240;27.880;2023-04-08T13:03:21;100637.38;;;10.42;85.56
56270;BME280;42176;43.240;27.880;2023-04-08T13:05:46;100633.84;;;10.37;87.84